createdAt,value
2023-04-22T00:01:39.534Z,77.46
2023-04-22T00:07:15.414Z,77.26
2023-04-22T00:09:42.426Z,78.75
2023-04-22T00:12:13.760Z,77.76
2023-04-22T00:14:40.982Z,78.19
2023-04-22T00:17:07.704Z,77.73
2023-04-22T00:19:35.115Z,77.14
2023-04-22T00:22:02.063Z,77.71
2023-04-22T00:24:29.297Z,77.98
2023-04-22T00:26:56.064Z,78.12
2023-04-22T00:29:25.493Z,77.14
2023-04-22T00:31:52.300Z,77.42
2023-04-22T00:34:19.657Z,77.14
2023-04-22T00:36:46.528Z,77.55
2023-04-22T00:39:14.041Z,78.19
2023-04-22T00:41:40.741Z,77.28
2023-04-22T00:44:11.309Z,77.25
2023-04-22T00:46:41.776Z,75.64
2023-04-22T00:49:08.462Z,76.72
2023-04-22T00:51:38.999Z,76.90
2023-04-22T00:54:06.508Z,74.87
2023-04-22T00:56:36.050Z,74.71
2023-04-22T00:59:03.097Z,74.47
2023-04-22T01:01:30.530Z,74.43
2023-04-22T01:03:59.017Z,74.64
2023-04-22T01:06:28.157Z,75.53
2023-04-22T01:08:54.866Z,76.58
2023-04-22T01:11:21.666Z,75.51
2023-04-22T01:13:48.469Z,74.99
2023-04-22T01:16:15.524Z,76.68
2023-04-22T01:18:42.364Z,76.99
2023-04-22T01:21:09.110Z,77.14
2023-04-22T01:23:38.585Z,76.49
2023-04-22T01:26:06.058Z,76.70
2023-04-22T01:28:33.010Z,76.51
2023-04-22T01:30:59.766Z,76.82
2023-04-22T01:33:26.750Z,77.01
2023-04-22T01:35:53.757Z,77.67
2023-04-22T01:38:20.398Z,77.32
2023-04-22T01:40:46.964Z,75.80
2023-04-22T01:43:13.612Z,76.43
2023-04-22T01:45:40.512Z,76.01
2023-04-22T01:48:07.474Z,76.72
2023-04-22T01:50:34.215Z,75.64
2023-04-22T01:53:01.368Z,76.28
2023-04-22T01:55:27.988Z,76.40
2023-04-22T01:57:54.710Z,77.04
2023-04-22T02:00:21.307Z,76.60
2023-04-22T02:02:48.349Z,75.54
2023-04-22T02:05:15.942Z,76.52
2023-04-22T02:07:45.788Z,75.72
2023-04-22T02:10:16.076Z,75.60
2023-04-22T02:12:43.040Z,75.87
2023-04-22T02:15:10.301Z,76.83
2023-04-22T02:17:37.612Z,76.43
2023-04-22T02:20:09.180Z,76.23
2023-04-22T02:22:36.781Z,76.17
2023-04-22T02:25:07.058Z,75.79
2023-04-22T02:27:33.889Z,74.29
2023-04-22T02:30:00.444Z,74.38
2023-04-22T02:32:28.583Z,73.72
2023-04-22T02:34:55.634Z,75.38
2023-04-22T02:37:23.035Z,74.89
2023-04-22T02:39:49.855Z,75.05
2023-04-22T02:42:17.420Z,74.90
2023-04-22T02:44:44.063Z,75.42
2023-04-22T02:47:10.691Z,73.85
2023-04-22T02:49:37.772Z,73.15
2023-04-22T02:52:05.068Z,74.20
2023-04-22T02:54:31.597Z,73.64
2023-04-22T02:56:59.838Z,74.32
2023-04-22T02:59:26.827Z,74.83
2023-04-22T03:01:54.110Z,75.90
2023-04-22T03:04:35.840Z,74.81
2023-04-22T03:07:03.184Z,74.66
2023-04-22T03:09:29.711Z,74.38
2023-04-22T03:11:56.626Z,74.49
2023-04-22T03:14:23.451Z,75.02
2023-04-22T03:16:50.285Z,75.29
2023-04-22T03:19:17.704Z,74.68
2023-04-22T03:21:44.375Z,74.68
2023-04-22T03:24:11.531Z,74.59
2023-04-22T03:26:44.681Z,74.94
2023-04-22T03:29:11.657Z,74.93
2023-04-22T03:31:38.356Z,73.61
2023-04-22T03:34:06.241Z,72.25
2023-04-22T03:36:32.975Z,71.47
2023-04-22T03:38:59.586Z,71.40
2023-04-22T03:41:27.217Z,73.05
2023-04-22T03:43:54.005Z,72.21
2023-04-22T03:46:21.206Z,72.62
2023-04-22T03:48:59.555Z,72.73
2023-04-22T03:51:29.196Z,72.61
2023-04-22T03:53:57.791Z,72.65
2023-04-22T03:56:26.787Z,70.57
2023-04-22T03:58:57.113Z,70.23
2023-04-22T04:01:24.763Z,71.21
2023-04-22T04:03:55.696Z,71.05
2023-04-22T04:06:26.484Z,70.51
2023-04-22T04:08:53.103Z,71.58
2023-04-22T04:11:19.796Z,70.67
2023-04-22T04:13:47.172Z,70.08
2023-04-22T04:16:18.867Z,71.06
2023-04-22T04:18:51.428Z,70.69
2023-04-22T04:21:20.203Z,71.22
2023-04-22T04:23:50.533Z,70.73
2023-04-22T04:26:21.360Z,71.08
2023-04-22T04:28:52.698Z,69.98
2023-04-22T04:31:19.803Z,69.45
2023-04-22T04:33:49.491Z,71.76
2023-04-22T04:36:16.390Z,71.08
2023-04-22T04:38:43.644Z,70.96
2023-04-22T04:41:10.708Z,71.27
2023-04-22T04:43:37.773Z,70.98
2023-04-22T04:46:16.650Z,71.45
2023-04-22T04:48:43.914Z,71.90
2023-04-22T04:51:11.695Z,71.73
2023-04-22T04:53:44.989Z,71.68
2023-04-22T04:56:11.642Z,70.63
2023-04-22T04:58:38.485Z,70.48
2023-04-22T05:01:12.332Z,70.31
2023-04-22T05:03:40.720Z,70.11
2023-04-22T05:06:08.169Z,70.13
2023-04-22T05:08:37.000Z,69.97
2023-04-22T05:11:08.147Z,69.25
2023-04-22T05:13:35.334Z,72.74
2023-04-22T05:16:02.899Z,71.67
2023-04-22T05:18:29.664Z,71.71
2023-04-22T05:20:59.471Z,71.19
2023-04-22T05:23:26.824Z,71.13
2023-04-22T05:25:56.822Z,71.73
2023-04-22T05:28:24.241Z,71.31
2023-04-22T05:30:54.584Z,71.75
2023-04-22T05:33:21.247Z,70.85
2023-04-22T05:35:48.956Z,70.86
2023-04-22T05:38:15.792Z,70.25
2023-04-22T05:40:42.431Z,71.97
2023-04-22T05:43:15.670Z,72.01
2023-04-22T05:45:47.906Z,72.28
2023-04-22T05:48:18.561Z,72.58
2023-04-22T05:50:56.480Z,72.00
2023-04-22T05:53:23.619Z,71.76
2023-04-22T05:55:50.666Z,70.84
2023-04-22T05:58:18.218Z,69.23
2023-04-22T06:00:51.582Z,70.49
2023-04-22T06:03:36.946Z,68.75
2023-04-22T06:06:04.527Z,71.03
2023-04-22T06:08:31.879Z,70.95
2023-04-22T06:10:58.714Z,71.69
2023-04-22T06:13:28.429Z,70.61
2023-04-22T06:15:55.619Z,70.83
2023-04-22T06:18:22.263Z,68.26
2023-04-22T06:20:50.512Z,66.67
2023-04-22T06:23:18.358Z,65.32
2023-04-22T06:25:45.362Z,66.00
2023-04-22T06:28:11.956Z,65.77
2023-04-22T06:30:39.402Z,66.91
2023-04-22T06:33:06.407Z,66.24
2023-04-22T06:35:33.239Z,64.38
2023-04-22T06:38:00.347Z,62.80
2023-04-22T06:40:32.022Z,64.64
2023-04-22T06:43:06.302Z,65.29
2023-04-22T06:45:50.768Z,67.52
2023-04-22T06:48:24.558Z,68.59
2023-04-22T06:51:11.509Z,68.98
2023-04-22T06:53:38.202Z,66.69
2023-04-22T06:56:05.982Z,66.46
2023-04-22T06:58:33.031Z,66.05
2023-04-22T07:00:59.912Z,64.46
2023-04-22T07:03:27.569Z,67.74
2023-04-22T07:06:01.530Z,67.09
2023-04-22T07:08:30.265Z,66.33
2023-04-22T07:10:57.844Z,65.31
2023-04-22T07:13:42.966Z,63.53
2023-04-22T07:16:10.100Z,62.85
2023-04-22T07:18:36.961Z,61.27
2023-04-22T07:21:03.695Z,60.25
2023-04-22T07:23:30.317Z,55.06
2023-04-22T07:25:57.283Z,58.81
2023-04-22T07:28:24.031Z,57.17
2023-04-22T07:30:52.065Z,53.76
2023-04-22T07:33:19.874Z,58.55
2023-04-22T07:35:47.257Z,57.09
2023-04-22T07:38:14.730Z,57.17
2023-04-22T07:40:41.623Z,56.34
2023-04-22T07:43:08.354Z,51.10
2023-04-22T07:45:38.199Z,56.63
2023-04-22T07:48:05.027Z,57.89
2023-04-22T07:50:32.055Z,53.67
2023-04-22T07:52:58.918Z,54.89
2023-04-22T07:55:25.679Z,52.85
2023-04-22T07:57:52.333Z,53.05
2023-04-22T08:00:19.003Z,52.56
2023-04-22T08:02:46.891Z,54.76
2023-04-22T08:05:13.823Z,56.22
2023-04-22T08:07:40.553Z,57.71
2023-04-22T08:10:07.700Z,58.56
2023-04-22T08:12:34.443Z,56.83
2023-04-22T08:15:01.281Z,56.55
2023-04-22T08:17:28.002Z,55.87
2023-04-22T08:19:54.743Z,58.47
2023-04-22T08:22:21.407Z,60.05
2023-04-22T08:24:47.991Z,60.35
2023-04-22T08:27:14.635Z,60.49
2023-04-22T08:29:41.355Z,58.05
2023-04-22T08:32:08.223Z,60.51
2023-04-22T08:34:34.988Z,60.76
2023-04-22T08:37:02.593Z,60.08
2023-04-22T08:39:29.427Z,63.10
2023-04-22T08:41:56.530Z,61.33
2023-04-22T08:44:23.577Z,61.64
2023-04-22T08:46:51.947Z,59.77
2023-04-22T08:49:19.580Z,58.75
2023-04-22T08:51:46.506Z,59.37
2023-04-22T08:54:13.190Z,60.21
2023-04-22T08:56:42.469Z,62.89
2023-04-22T08:59:11.575Z,61.84
2023-04-22T09:01:42.272Z,61.84
2023-04-22T09:04:15.198Z,61.65
2023-04-22T09:06:42.174Z,59.77
2023-04-22T09:09:09.043Z,60.27
2023-04-22T09:11:37.357Z,61.75
2023-04-22T09:14:07.288Z,58.13
2023-04-22T09:16:34.294Z,57.29
2023-04-22T09:19:01.622Z,59.62
2023-04-22T09:21:29.221Z,59.09
2023-04-22T09:23:56.929Z,60.02
2023-04-22T09:26:24.927Z,58.78
2023-04-22T09:28:51.500Z,59.53
2023-04-22T09:31:18.298Z,59.91
2023-04-22T09:33:50.701Z,59.66
2023-04-22T09:36:21.376Z,60.60
2023-04-22T09:38:58.605Z,57.37
2023-04-22T09:41:32.673Z,55.38
2023-04-22T09:44:01.445Z,55.12
2023-04-22T09:46:30.045Z,56.03
2023-04-22T09:48:58.613Z,56.01
2023-04-22T09:51:25.557Z,55.66
2023-04-22T09:54:05.134Z,52.44
2023-04-22T09:56:52.180Z,53.53
2023-04-22T09:59:23.367Z,53.64
2023-04-22T10:01:53.248Z,52.02
2023-04-22T10:04:24.850Z,53.94
2023-04-22T10:06:52.900Z,53.52
2023-04-22T10:09:22.292Z,53.67
2023-04-22T10:11:51.373Z,53.83
2023-04-22T10:14:18.334Z,52.84
2023-04-22T10:16:47.303Z,52.32
2023-04-22T10:19:21.004Z,50.65
2023-04-22T10:21:50.823Z,49.86
2023-04-22T10:24:19.095Z,49.65
2023-04-22T10:26:59.086Z,50.36
2023-04-22T10:29:27.643Z,51.03
2023-04-22T10:31:59.323Z,49.81
2023-04-22T10:34:26.045Z,48.92
2023-04-22T10:37:12.490Z,49.12
2023-04-22T10:39:42.723Z,51.21
2023-04-22T10:42:12.881Z,50.31
2023-04-22T10:44:45.728Z,51.64
2023-04-22T10:47:12.411Z,53.06
2023-04-22T10:49:39.272Z,51.70
2023-04-22T10:52:08.004Z,52.90
2023-04-22T10:54:37.864Z,54.51
2023-04-22T10:57:14.762Z,58.11
2023-04-22T10:59:45.818Z,61.22
2023-04-22T11:02:15.266Z,60.78
2023-04-22T11:04:42.836Z,62.50
2023-04-22T11:07:20.554Z,63.69
2023-04-22T11:09:51.328Z,63.59
2023-04-22T11:12:39.107Z,64.65
2023-04-22T11:15:07.151Z,63.86
2023-04-22T11:17:34.568Z,62.16
2023-04-22T11:20:02.141Z,62.21
2023-04-22T11:22:35.974Z,62.70
2023-04-22T11:25:06.606Z,62.81
2023-04-22T11:27:34.064Z,63.14
2023-04-22T11:30:04.840Z,63.25
2023-04-22T11:32:32.230Z,64.07
2023-04-22T11:35:12.961Z,64.53
2023-04-22T11:38:04.049Z,64.13
2023-04-22T11:40:37.831Z,65.37
2023-04-22T11:43:08.161Z,65.87
2023-04-22T11:45:38.689Z,65.87
2023-04-22T11:48:08.379Z,66.16
2023-04-22T11:50:40.619Z,66.98
2023-04-22T11:53:21.536Z,65.74
2023-04-22T11:56:12.633Z,67.87
2023-04-22T11:58:41.887Z,67.34
2023-04-22T12:01:12.837Z,66.49
2023-04-22T12:03:39.690Z,65.31
2023-04-22T12:06:06.973Z,65.19
2023-04-22T12:08:37.057Z,66.59
2023-04-22T12:11:08.857Z,66.03
2023-04-22T12:13:38.851Z,70.02
2023-04-22T12:16:18.085Z,66.60
2023-04-22T12:18:51.675Z,67.92
2023-04-22T12:21:23.576Z,69.97
2023-04-22T12:23:58.508Z,66.01
2023-04-22T12:26:27.548Z,67.83
2023-04-22T12:28:56.508Z,69.11
2023-04-22T12:31:23.142Z,68.21
2023-04-22T12:33:50.349Z,67.26
2023-04-22T12:36:18.469Z,67.38
2023-04-22T12:38:45.084Z,70.19
2023-04-22T12:41:11.708Z,70.45
2023-04-22T12:43:39.522Z,69.52
2023-04-22T12:46:08.238Z,68.06
2023-04-22T12:48:40.171Z,67.92
2023-04-22T12:51:07.279Z,66.38
2023-04-22T12:53:34.377Z,66.10
2023-04-22T12:56:01.187Z,65.97
2023-04-22T12:58:28.572Z,66.56
2023-04-22T13:00:56.900Z,66.41
2023-04-22T13:03:23.725Z,67.29
2023-04-22T13:05:51.191Z,66.68
2023-04-22T13:08:18.046Z,66.95
2023-04-22T13:10:44.744Z,66.56
2023-04-22T13:15:41.453Z,66.66
2023-04-22T13:18:10.590Z,67.65
2023-04-22T13:20:38.423Z,68.66
2023-04-22T13:23:05.228Z,68.86
2023-04-22T13:25:32.029Z,68.36
2023-04-22T13:27:58.616Z,66.63
2023-04-22T13:30:25.354Z,67.04
2023-04-22T13:32:52.114Z,65.54
2023-04-22T13:35:19.204Z,65.63
2023-04-22T13:37:46.990Z,66.69
2023-04-22T13:40:13.789Z,64.95
2023-04-22T13:42:42.660Z,64.35
2023-04-22T13:45:09.901Z,64.28
2023-04-22T13:47:37.205Z,65.81
2023-04-22T13:50:05.996Z,66.38
2023-04-22T13:52:32.728Z,66.06
2023-04-22T13:54:59.528Z,65.93
2023-04-22T13:57:27.904Z,66.13
2023-04-22T13:59:54.661Z,65.75
2023-04-22T14:02:24.164Z,66.83
2023-04-22T14:04:51.226Z,65.31
2023-04-22T14:07:18.558Z,65.82
2023-04-22T14:09:45.442Z,65.87
2023-04-22T14:12:13.378Z,67.03
2023-04-22T14:14:40.199Z,67.98
2023-04-22T14:17:08.956Z,68.03
2023-04-22T14:19:39.406Z,67.39
2023-04-22T14:22:06.807Z,66.87
2023-04-22T14:24:34.040Z,67.52
2023-04-22T14:27:03.536Z,68.45
2023-04-22T14:29:32.089Z,68.30
2023-04-22T14:31:59.617Z,69.88
2023-04-22T14:34:27.455Z,69.03
2023-04-22T14:36:54.559Z,68.70
2023-04-22T14:39:21.547Z,68.39
2023-04-22T14:41:48.395Z,69.13
2023-04-22T14:44:15.157Z,68.68
2023-04-22T14:46:45.935Z,69.24
2023-04-22T14:49:12.691Z,69.67
2023-04-22T14:51:46.137Z,70.43
2023-04-22T14:54:17.370Z,70.09
2023-04-22T14:56:44.734Z,71.23
2023-04-22T14:59:11.292Z,70.59
2023-04-22T15:01:40.963Z,71.44
2023-04-22T15:04:12.687Z,70.65
2023-04-22T15:06:39.576Z,70.69
2023-04-22T15:09:07.160Z,71.71
2023-04-22T15:11:33.730Z,71.04
2023-04-22T15:14:00.249Z,72.10
2023-04-22T15:16:27.382Z,72.15
2023-04-22T15:18:54.990Z,71.98
2023-04-22T15:21:21.631Z,73.34
2023-04-22T15:23:49.685Z,73.38
2023-04-22T15:26:16.524Z,74.12
2023-04-22T15:28:43.483Z,74.56
2023-04-22T15:31:10.245Z,75.09
2023-04-22T15:33:38.341Z,75.86
2023-04-22T15:36:09.198Z,75.41
2023-04-22T15:38:38.469Z,77.58
2023-04-22T15:41:05.013Z,76.99
2023-04-22T15:43:31.884Z,77.43
2023-04-22T15:45:59.115Z,77.11
2023-04-22T15:48:25.883Z,76.89
2023-04-22T15:50:52.652Z,78.14
2023-04-22T15:53:19.351Z,78.28
2023-04-22T15:55:47.430Z,78.05
2023-04-22T15:58:15.296Z,78.79
2023-04-22T16:00:44.963Z,76.75
2023-04-22T16:03:12.200Z,77.66
2023-04-22T16:05:39.000Z,78.25
2023-04-22T16:08:05.730Z,78.14
2023-04-22T16:10:32.390Z,78.19
2023-04-22T16:13:01.063Z,78.21
2023-04-22T16:15:28.164Z,78.69
2023-04-22T16:17:55.758Z,78.63
2023-04-22T16:20:25.454Z,78.64
2023-04-22T16:22:52.024Z,77.47
2023-04-22T16:25:19.003Z,77.51
2023-04-22T16:27:46.129Z,77.08
2023-04-22T16:30:16.086Z,76.96
2023-04-22T16:32:43.000Z,76.64
2023-04-22T16:35:10.512Z,75.86
2023-04-22T16:37:37.978Z,76.26
2023-04-22T16:40:06.337Z,76.74
2023-04-22T16:42:35.895Z,77.51
2023-04-22T16:45:02.798Z,77.65
2023-04-22T16:47:29.460Z,76.36
2023-04-22T16:49:56.152Z,77.96
2023-04-22T16:52:22.930Z,77.25
2023-04-22T16:54:51.434Z,76.83
2023-04-22T16:57:18.227Z,75.59
2023-04-22T16:59:47.598Z,76.26
2023-04-22T17:02:14.563Z,74.52
2023-04-22T17:04:41.412Z,73.93
2023-04-22T17:07:09.710Z,72.89
2023-04-22T17:09:36.395Z,72.73
2023-04-22T17:12:03.268Z,72.26
2023-04-22T17:14:34.324Z,74.66
2023-04-22T17:17:01.198Z,74.69
2023-04-22T17:19:27.965Z,76.49
2023-04-22T17:21:57.105Z,75.24
2023-04-22T17:24:24.842Z,74.50
2023-04-22T17:26:51.614Z,74.06
2023-04-22T17:29:23.478Z,74.39
2023-04-22T17:31:50.743Z,73.90
2023-04-22T17:34:18.495Z,74.38
2023-04-22T17:36:46.090Z,73.69
2023-04-22T17:39:13.402Z,73.55
2023-04-22T17:41:40.429Z,74.73
2023-04-22T17:44:08.889Z,74.11
2023-04-22T17:46:36.086Z,73.57
2023-04-22T17:49:03.419Z,73.79
2023-04-22T17:51:37.467Z,74.53
2023-04-22T17:54:05.438Z,75.46
2023-04-22T17:56:34.443Z,75.07
2023-04-22T17:59:01.273Z,74.74
2023-04-22T18:01:30.102Z,74.86
2023-04-22T18:04:02.222Z,76.20
2023-04-22T18:06:30.694Z,75.25
2023-04-22T18:08:57.669Z,74.44
2023-04-22T18:11:25.900Z,74.75
2023-04-22T18:13:52.600Z,74.79
2023-04-22T18:16:22.075Z,75.80
2023-04-22T18:18:49.018Z,75.69
2023-04-22T18:21:16.581Z,75.32
2023-04-22T18:23:43.306Z,75.46
2023-04-22T18:26:12.562Z,76.00
2023-04-22T18:28:43.659Z,75.62
2023-04-22T18:31:10.478Z,75.43
2023-04-22T18:33:37.455Z,75.72
2023-04-22T18:36:04.429Z,75.39
2023-04-22T18:38:31.201Z,76.40
2023-04-22T18:40:57.841Z,76.40
2023-04-22T18:43:24.526Z,76.44
2023-04-22T18:45:51.196Z,76.85
2023-04-22T18:48:18.837Z,76.57
2023-04-22T18:50:45.717Z,76.69
2023-04-22T18:53:12.594Z,77.05
2023-04-22T18:55:40.536Z,77.39
2023-04-22T18:58:09.210Z,77.03
2023-04-22T19:00:36.030Z,77.79
2023-04-22T19:03:02.803Z,76.81
2023-04-22T19:05:29.606Z,76.72
2023-04-22T19:07:56.511Z,76.73
2023-04-22T19:10:23.117Z,75.76
2023-04-22T19:12:49.865Z,75.77
2023-04-22T19:15:19.325Z,76.01
2023-04-22T19:17:46.352Z,76.59
2023-04-22T19:20:13.182Z,76.76
2023-04-22T19:22:39.894Z,76.34
2023-04-22T19:25:09.316Z,76.20
2023-04-22T19:27:36.018Z,76.87
2023-04-22T19:30:04.285Z,77.21
2023-04-22T19:32:31.001Z,77.01
2023-04-22T19:34:58.157Z,78.02
2023-04-22T19:37:25.987Z,76.41
2023-04-22T19:39:52.651Z,76.27
2023-04-22T19:42:20.931Z,76.54
2023-04-22T19:44:48.348Z,76.84
2023-04-22T19:47:15.676Z,76.33
2023-04-22T19:49:43.200Z,78.11
2023-04-22T19:52:11.729Z,76.56
2023-04-22T19:54:41.383Z,76.16
2023-04-22T19:57:09.323Z,75.31
2023-04-22T19:59:36.187Z,76.73
2023-04-22T20:02:03.516Z,76.68
2023-04-22T20:04:30.680Z,76.60
2023-04-22T20:06:59.018Z,76.29
2023-04-22T20:09:27.451Z,76.19
2023-04-22T20:11:57.806Z,75.73
2023-04-22T20:14:26.621Z,75.50
2023-04-22T20:16:54.288Z,75.40
2023-04-22T20:19:21.002Z,75.21
2023-04-22T20:21:50.253Z,75.83
2023-04-22T20:24:20.233Z,76.15
2023-04-22T20:26:47.768Z,75.88
2023-04-22T20:29:16.289Z,75.52
2023-04-22T20:31:43.397Z,75.96
2023-04-22T20:34:11.509Z,75.93
2023-04-22T20:36:38.951Z,74.63
2023-04-22T20:39:06.237Z,75.25
2023-04-22T20:41:39.157Z,75.27
2023-04-22T20:44:06.463Z,74.38
2023-04-22T20:46:33.724Z,74.58
2023-04-22T20:49:01.142Z,74.69
2023-04-22T20:51:32.038Z,75.10
2023-04-22T20:54:14.668Z,75.37
2023-04-22T20:56:53.024Z,74.92
2023-04-22T20:59:19.778Z,74.45
2023-04-22T21:01:47.612Z,75.87
2023-04-22T21:04:14.732Z,75.96
2023-04-22T21:06:45.333Z,75.65
2023-04-22T21:09:13.160Z,75.58
2023-04-22T21:11:40.178Z,74.95
2023-04-22T21:14:07.920Z,75.67
2023-04-22T21:16:39.492Z,76.25
2023-04-22T21:19:09.868Z,75.68
2023-04-22T21:21:37.363Z,75.75
2023-04-22T21:24:08.117Z,75.02
2023-04-22T21:26:38.092Z,76.90
2023-04-22T21:29:05.112Z,75.57
2023-04-22T21:31:34.104Z,76.24
2023-04-22T21:34:04.571Z,75.29
2023-04-22T21:36:31.803Z,74.42
2023-04-22T21:39:00.076Z,74.27
2023-04-22T21:41:26.926Z,75.48
2023-04-22T21:43:53.735Z,75.33
2023-04-22T21:46:22.114Z,75.37
2023-04-22T21:48:48.748Z,75.87
2023-04-22T21:51:15.707Z,75.16
2023-04-22T21:53:42.353Z,74.40
2023-04-22T21:56:09.089Z,74.76
2023-04-22T21:58:35.957Z,74.94
2023-04-22T22:01:02.880Z,74.43
2023-04-22T22:03:29.680Z,74.93
2023-04-22T22:05:56.873Z,74.30
2023-04-22T22:08:23.542Z,75.42
2023-04-22T22:10:52.020Z,75.11
2023-04-22T22:13:18.717Z,75.30
2023-04-22T22:15:45.518Z,76.21
2023-04-22T22:18:12.221Z,75.27
2023-04-22T22:20:39.488Z,74.60
2023-04-22T22:23:06.223Z,74.77
2023-04-22T22:25:32.931Z,75.95
2023-04-22T22:28:00.008Z,75.03
2023-04-22T22:30:26.766Z,75.46
2023-04-22T22:32:53.348Z,75.76
2023-04-22T22:35:20.930Z,75.59
2023-04-22T22:37:47.679Z,74.62
2023-04-22T22:40:14.645Z,75.74
2023-04-22T22:42:41.261Z,75.11
2023-04-22T22:45:08.963Z,76.09
2023-04-22T22:47:39.749Z,76.44
2023-04-22T22:50:08.756Z,77.40
2023-04-22T22:52:38.914Z,76.81
2023-04-22T22:55:06.274Z,75.20
2023-04-22T22:57:38.637Z,75.59
2023-04-22T23:00:08.472Z,75.29
2023-04-22T23:02:35.644Z,74.88
2023-04-22T23:05:04.549Z,74.54
2023-04-22T23:07:31.160Z,74.70
2023-04-22T23:09:57.877Z,75.03
2023-04-22T23:12:24.916Z,74.50
2023-04-22T23:14:51.545Z,75.64
2023-04-22T23:17:18.463Z,76.67
2023-04-22T23:19:45.684Z,77.61
2023-04-22T23:22:14.162Z,77.01
2023-04-22T23:24:41.816Z,77.05
2023-04-22T23:27:08.928Z,76.32
2023-04-22T23:29:36.803Z,76.02
2023-04-22T23:32:05.449Z,76.90
2023-04-22T23:34:33.667Z,76.69
2023-04-22T23:37:05.495Z,77.11
2023-04-22T23:39:32.588Z,76.71
2023-04-22T23:41:59.221Z,77.69
2023-04-22T23:44:25.982Z,76.93
2023-04-22T23:46:52.682Z,77.11
2023-04-22T23:49:20.151Z,76.79
2023-04-22T23:51:47.197Z,75.62
2023-04-22T23:54:15.976Z,75.16
2023-04-22T23:56:43.370Z,75.40
2023-04-22T23:59:11.806Z,76.59
